createdAt,value
2023-02-05T00:01:42.215Z,94.60
2023-02-05T00:04:10.596Z,94.20
2023-02-05T00:06:38.168Z,94.50
2023-02-05T00:09:06.502Z,94.70
2023-02-05T00:11:35.112Z,94.60
2023-02-05T00:14:03.550Z,94.50
2023-02-05T00:16:31.247Z,94.50
2023-02-05T00:18:59.608Z,94.70
2023-02-05T00:21:28.011Z,94.80
2023-02-05T00:23:56.405Z,95.30
2023-02-05T00:26:24.764Z,95.00
2023-02-05T00:28:53.185Z,95.30
2023-02-05T00:31:21.980Z,95.10
2023-02-05T00:33:50.371Z,94.90
2023-02-05T00:36:19.139Z,94.90
2023-02-05T00:38:46.975Z,95.20
2023-02-05T00:41:15.699Z,95.20
2023-02-05T00:43:43.590Z,95.40
2023-02-05T00:46:13.254Z,95.50
2023-02-05T00:48:42.179Z,95.80
2023-02-05T00:51:10.869Z,95.90
2023-02-05T00:53:38.564Z,95.80
2023-02-05T00:56:06.282Z,95.80
2023-02-05T00:58:34.141Z,96.00
2023-02-05T01:01:02.039Z,95.80
2023-02-05T01:03:29.841Z,96.00
2023-02-05T01:05:59.281Z,96.10
2023-02-05T01:08:26.952Z,96.00
2023-02-05T01:10:55.806Z,96.10
2023-02-05T01:13:23.595Z,96.20
2023-02-05T01:15:51.775Z,96.30
2023-02-05T01:18:19.448Z,96.40
2023-02-05T01:20:47.890Z,96.10
2023-02-05T01:23:17.245Z,96.30
2023-02-05T01:25:45.784Z,96.80
2023-02-05T01:28:14.161Z,96.80
2023-02-05T01:30:42.090Z,96.60
2023-02-05T01:33:10.715Z,96.60
2023-02-05T01:35:39.125Z,96.60
2023-02-05T01:38:06.628Z,96.50
2023-02-05T01:40:34.229Z,96.30
2023-02-05T01:43:01.788Z,96.90
2023-02-05T01:45:29.994Z,96.60
2023-02-05T01:48:01.279Z,96.50
2023-02-05T01:50:32.277Z,96.30
2023-02-05T01:53:01.036Z,96.30
2023-02-05T01:55:30.439Z,96.20
2023-02-05T01:57:58.309Z,96.00
2023-02-05T02:00:36.044Z,95.80
2023-02-05T02:03:07.191Z,95.70
2023-02-05T02:05:35.496Z,95.30
2023-02-05T02:08:03.674Z,95.30
2023-02-05T02:10:35.450Z,95.20
2023-02-05T02:13:03.525Z,95.10
2023-02-05T02:15:55.143Z,95.00
2023-02-05T02:18:29.092Z,95.10
2023-02-05T02:21:10.154Z,94.80
2023-02-05T02:23:40.969Z,94.80
2023-02-05T02:26:11.782Z,94.70
2023-02-05T02:28:51.706Z,94.70
2023-02-05T02:31:42.389Z,94.50
2023-02-05T02:34:19.034Z,93.90
2023-02-05T02:36:46.876Z,94.20
2023-02-05T02:39:24.686Z,94.00
2023-02-05T02:41:54.188Z,93.90
2023-02-05T02:44:35.095Z,93.80
2023-02-05T02:47:07.801Z,93.90
2023-02-05T02:49:38.569Z,93.90
2023-02-05T02:52:07.982Z,93.20
2023-02-05T02:54:37.824Z,93.50
2023-02-05T02:57:08.489Z,93.20
2023-02-05T02:59:37.821Z,93.30
2023-02-05T03:02:07.439Z,93.40
2023-02-05T03:04:37.766Z,93.40
2023-02-05T03:07:11.695Z,93.30
2023-02-05T03:09:43.127Z,93.30
2023-02-05T03:12:11.006Z,93.30
2023-02-05T03:14:50.351Z,93.00
2023-02-05T03:17:20.094Z,92.90
2023-02-05T03:19:52.723Z,93.60
2023-02-05T03:22:20.944Z,93.20
2023-02-05T03:24:51.765Z,93.10
2023-02-05T03:27:27.521Z,93.20
2023-02-05T03:29:55.837Z,93.20
2023-02-05T03:32:36.603Z,93.30
2023-02-05T03:35:13.332Z,93.70
2023-02-05T03:37:46.412Z,93.60
2023-02-05T03:40:29.284Z,93.70
2023-02-05T03:43:00.162Z,93.70
2023-02-05T03:45:47.834Z,94.10
2023-02-05T03:48:29.828Z,93.60
2023-02-05T03:51:29.690Z,93.50
2023-02-05T03:54:18.486Z,93.40
2023-02-05T03:56:58.996Z,93.50
2023-02-05T03:59:27.077Z,93.70
2023-02-05T04:01:57.878Z,94.00
2023-02-05T04:04:25.544Z,93.80
2023-02-05T04:06:54.085Z,93.50
2023-02-05T04:09:21.648Z,93.40
2023-02-05T04:11:49.508Z,94.20
2023-02-05T04:14:17.087Z,94.40
2023-02-05T04:16:45.113Z,93.60
2023-02-05T04:19:13.916Z,93.90
2023-02-05T04:21:41.439Z,94.10
2023-02-05T04:24:10.416Z,94.10
2023-02-05T04:26:38.920Z,94.00
2023-02-05T04:29:07.072Z,93.80
2023-02-05T04:31:35.352Z,93.50
2023-02-05T04:34:08.120Z,93.40
2023-02-05T04:36:45.885Z,93.20
2023-02-05T04:39:20.817Z,93.20
2023-02-05T04:41:49.886Z,93.30
2023-02-05T04:44:17.852Z,93.20
2023-02-05T04:46:46.895Z,93.00
2023-02-05T04:49:15.494Z,93.50
2023-02-05T04:51:43.349Z,93.50
2023-02-05T04:54:16.359Z,93.50
2023-02-05T04:56:46.614Z,93.20
2023-02-05T04:59:14.488Z,93.10
2023-02-05T05:01:47.620Z,93.10
2023-02-05T05:04:15.286Z,93.20
2023-02-05T05:06:42.919Z,93.20
2023-02-05T05:09:11.664Z,93.20
2023-02-05T05:11:40.031Z,93.20
2023-02-05T05:14:07.670Z,93.20
2023-02-05T05:16:35.469Z,93.40
2023-02-05T05:19:03.135Z,93.10
2023-02-05T05:21:34.329Z,93.10
2023-02-05T05:24:08.569Z,93.10
2023-02-05T05:26:36.776Z,93.10
2023-02-05T05:29:07.700Z,93.20
2023-02-05T05:31:35.358Z,93.20
2023-02-05T05:34:03.313Z,93.30
2023-02-05T05:36:31.576Z,94.40
2023-02-05T05:39:22.262Z,94.10
2023-02-05T05:42:08.134Z,93.80
2023-02-05T05:44:35.831Z,93.70
2023-02-05T05:47:03.705Z,93.60
2023-02-05T05:49:34.757Z,93.60
2023-02-05T05:52:05.155Z,93.70
2023-02-05T05:54:33.003Z,94.00
2023-02-05T05:57:00.596Z,94.20
2023-02-05T05:59:28.832Z,93.90
2023-02-05T06:01:56.787Z,94.30
2023-02-05T06:04:25.323Z,94.20
2023-02-05T06:06:55.321Z,94.10
2023-02-05T06:09:24.873Z,94.20
2023-02-05T06:11:52.801Z,94.00
2023-02-05T06:14:20.572Z,94.10
2023-02-05T06:16:48.581Z,94.00
2023-02-05T06:19:16.614Z,94.00
2023-02-05T06:21:44.294Z,94.10
2023-02-05T06:24:14.632Z,94.00
2023-02-05T06:26:42.801Z,94.00
2023-02-05T06:29:10.594Z,93.80
2023-02-05T06:31:38.643Z,93.90
2023-02-05T06:34:06.518Z,94.20
2023-02-05T06:36:34.444Z,94.00
2023-02-05T06:39:02.161Z,94.00
2023-02-05T06:41:30.218Z,93.80
2023-02-05T06:43:59.837Z,93.80
2023-02-05T06:46:27.599Z,93.80
2023-02-05T06:48:56.421Z,93.80
2023-02-05T06:51:25.076Z,93.70
2023-02-05T06:53:54.088Z,93.50
2023-02-05T06:56:21.937Z,93.70
2023-02-05T06:58:49.586Z,93.60
2023-02-05T07:01:17.310Z,93.60
2023-02-05T07:03:45.375Z,93.70
2023-02-05T07:06:13.138Z,93.60
2023-02-05T07:08:40.934Z,93.60
2023-02-05T07:11:08.684Z,93.70
2023-02-05T07:13:36.186Z,93.60
2023-02-05T07:16:08.365Z,93.50
2023-02-05T07:18:36.165Z,93.60
2023-02-05T07:21:08.198Z,93.40
2023-02-05T07:23:37.000Z,93.50
2023-02-05T07:26:11.304Z,93.30
2023-02-05T07:28:43.464Z,93.30
2023-02-05T07:31:13.324Z,93.20
2023-02-05T07:33:41.258Z,93.00
2023-02-05T07:36:16.598Z,93.20
2023-02-05T07:38:44.828Z,93.10
2023-02-05T07:41:14.733Z,93.10
2023-02-05T07:43:42.433Z,93.00
2023-02-05T07:46:12.183Z,93.10
2023-02-05T07:48:40.172Z,93.00
2023-02-05T07:51:07.971Z,93.00
2023-02-05T07:53:35.637Z,93.00
2023-02-05T07:56:04.569Z,92.90
2023-02-05T07:58:32.240Z,92.90
2023-02-05T08:01:03.816Z,92.90
2023-02-05T08:03:32.440Z,92.80
2023-02-05T08:06:00.191Z,92.80
2023-02-05T08:08:27.785Z,92.80
2023-02-05T08:11:05.006Z,92.80
2023-02-05T08:13:33.724Z,92.80
2023-02-05T08:16:05.257Z,93.10
2023-02-05T08:18:32.895Z,92.70
2023-02-05T08:21:00.936Z,92.70
2023-02-05T08:23:28.556Z,92.70
2023-02-05T08:25:57.126Z,92.60
2023-02-05T08:28:26.105Z,92.60
2023-02-05T08:30:54.446Z,92.50
2023-02-05T08:33:25.850Z,92.60
2023-02-05T08:35:53.478Z,92.50
2023-02-05T08:38:21.418Z,92.40
2023-02-05T08:40:49.304Z,92.40
2023-02-05T08:43:16.910Z,92.40
2023-02-05T08:45:47.084Z,92.40
2023-02-05T08:48:14.894Z,92.30
2023-02-05T08:50:45.593Z,92.30
2023-02-05T08:53:13.258Z,92.60
2023-02-05T08:55:41.657Z,92.30
2023-02-05T08:58:10.491Z,92.30
2023-02-05T09:00:42.091Z,92.30
2023-02-05T09:03:10.513Z,92.30
2023-02-05T09:05:40.079Z,92.30
2023-02-05T09:08:07.866Z,92.30
2023-02-05T09:10:36.515Z,92.30
2023-02-05T09:13:04.891Z,92.40
2023-02-05T09:15:33.539Z,92.40
2023-02-05T09:18:01.221Z,92.40
2023-02-05T09:20:28.751Z,92.40
2023-02-05T09:22:56.390Z,92.50
2023-02-05T09:25:24.193Z,92.40
2023-02-05T09:27:51.819Z,92.40
2023-02-05T09:30:19.420Z,92.50
2023-02-05T09:32:47.787Z,92.60
2023-02-05T09:35:17.200Z,92.50
2023-02-05T09:37:49.262Z,92.50
2023-02-05T09:40:27.414Z,92.50
2023-02-05T09:42:59.288Z,92.50
2023-02-05T09:45:39.954Z,92.50
2023-02-05T09:48:27.341Z,92.60
2023-02-05T09:50:57.986Z,92.60
2023-02-05T09:53:29.750Z,92.60
2023-02-05T09:55:58.621Z,92.70
2023-02-05T09:58:27.871Z,92.70
2023-02-05T10:01:01.899Z,92.70
2023-02-05T10:03:30.585Z,92.70
2023-02-05T10:06:14.684Z,92.80
2023-02-05T10:08:42.217Z,92.70
2023-02-05T10:11:19.012Z,92.70
2023-02-05T10:13:48.990Z,92.70
2023-02-05T10:16:24.354Z,92.70
2023-02-05T10:19:01.783Z,92.80
2023-02-05T10:21:41.927Z,92.70
2023-02-05T10:24:12.601Z,92.80
2023-02-05T10:26:51.949Z,92.80
2023-02-05T10:29:39.684Z,92.80
2023-02-05T10:32:11.281Z,92.80
2023-02-05T10:34:38.789Z,92.90
2023-02-05T10:39:35.682Z,93.00
2023-02-05T10:42:21.973Z,93.00
2023-02-05T10:44:50.350Z,92.90
2023-02-05T10:47:22.808Z,92.90
2023-02-05T10:49:50.409Z,93.00
2023-02-05T10:52:18.113Z,93.00
2023-02-05T10:54:47.483Z,93.00
2023-02-05T10:57:17.171Z,93.10
2023-02-05T10:59:55.453Z,93.00
2023-02-05T11:02:25.686Z,93.10
2023-02-05T11:04:59.486Z,93.20
2023-02-05T11:07:31.629Z,93.30
2023-02-05T11:10:19.278Z,93.30
2023-02-05T11:12:49.239Z,93.20
2023-02-05T11:15:21.572Z,93.30
2023-02-05T11:17:54.367Z,93.30
2023-02-05T11:20:30.532Z,93.40
2023-02-05T11:23:18.523Z,93.30
2023-02-05T11:25:56.069Z,93.50
2023-02-05T11:28:33.395Z,93.50
2023-02-05T11:31:20.343Z,93.40
2023-02-05T11:33:48.566Z,93.40
2023-02-05T11:36:19.339Z,93.50
2023-02-05T11:38:52.307Z,93.50
2023-02-05T11:41:31.481Z,93.50
2023-02-05T11:44:03.088Z,93.60
2023-02-05T11:46:35.353Z,93.50
2023-02-05T11:49:05.521Z,93.50
2023-02-05T11:51:36.841Z,93.60
2023-02-05T11:54:08.239Z,93.60
2023-02-05T11:56:36.991Z,93.60
2023-02-05T11:59:06.434Z,94.00
2023-02-05T12:01:35.256Z,93.70
2023-02-05T12:04:22.266Z,93.70
2023-02-05T12:06:55.078Z,93.70
2023-02-05T12:09:23.846Z,93.70
2023-02-05T12:12:24.264Z,93.70
2023-02-05T12:15:04.054Z,93.70
2023-02-05T12:17:53.928Z,93.70
2023-02-05T12:20:26.152Z,93.80
2023-02-05T12:23:06.834Z,93.80
2023-02-05T12:25:36.328Z,93.80
2023-02-05T12:28:11.275Z,93.90
2023-02-05T12:30:45.089Z,93.80
2023-02-05T12:33:13.048Z,93.90
2023-02-05T12:35:59.249Z,94.00
2023-02-05T12:38:33.990Z,93.90
2023-02-05T12:41:01.624Z,94.00
2023-02-05T12:43:33.558Z,94.10
2023-02-05T12:46:11.051Z,94.00
2023-02-05T12:49:00.154Z,94.00
2023-02-05T12:51:37.503Z,94.20
2023-02-05T12:54:28.934Z,94.10
2023-02-05T12:57:02.133Z,93.90
2023-02-05T12:59:41.606Z,94.00
2023-02-05T13:02:12.702Z,94.00
2023-02-05T13:04:44.039Z,94.10
2023-02-05T13:07:30.100Z,94.10
2023-02-05T13:10:03.568Z,94.20
2023-02-05T13:12:34.729Z,93.90
2023-02-05T13:15:05.377Z,94.00
2023-02-05T13:17:36.969Z,94.00
2023-02-05T13:20:12.296Z,93.80
2023-02-05T13:23:02.896Z,93.90
2023-02-05T13:26:01.708Z,94.00
2023-02-05T13:28:40.533Z,94.10
2023-02-05T13:31:31.120Z,94.20
2023-02-05T13:34:03.247Z,94.30
2023-02-05T13:36:32.622Z,94.30
2023-02-05T13:39:14.517Z,94.20
2023-02-05T13:41:51.977Z,94.40
2023-02-05T13:44:26.530Z,94.40
2023-02-05T13:47:00.613Z,94.40
2023-02-05T13:49:32.013Z,94.40
2023-02-05T13:52:11.024Z,94.60
2023-02-05T13:54:38.621Z,94.60
2023-02-05T13:57:24.683Z,94.70
2023-02-05T13:59:53.378Z,94.80
2023-02-05T14:02:20.833Z,94.40
2023-02-05T14:04:55.096Z,93.90
2023-02-05T14:07:27.111Z,94.00
2023-02-05T14:09:57.453Z,94.50
2023-02-05T14:12:26.678Z,94.50
2023-02-05T14:15:13.204Z,94.30
2023-02-05T14:17:40.653Z,94.00
2023-02-05T14:20:27.401Z,94.60
2023-02-05T14:23:01.950Z,94.60
2023-02-05T14:25:36.055Z,94.50
2023-02-05T14:28:04.780Z,94.50
2023-02-05T14:30:37.995Z,94.80
2023-02-05T14:33:24.056Z,94.90
2023-02-05T14:35:57.140Z,94.90
2023-02-05T14:38:34.090Z,95.10
2023-02-05T14:41:22.002Z,94.60
2023-02-05T14:43:57.604Z,94.30
2023-02-05T14:46:28.766Z,94.40
2023-02-05T14:48:58.619Z,94.80
2023-02-05T14:51:32.170Z,94.90
2023-02-05T14:54:20.592Z,94.90
2023-02-05T14:56:55.105Z,95.00
2023-02-05T14:59:29.839Z,94.30
2023-02-05T15:01:58.004Z,94.60
2023-02-05T15:04:32.693Z,94.70
2023-02-05T15:07:01.539Z,94.80
2023-02-05T15:09:47.912Z,94.60
2023-02-05T15:12:31.843Z,94.30
2023-02-05T15:14:59.776Z,94.40
2023-02-05T15:17:30.721Z,94.80
2023-02-05T15:20:01.856Z,94.90
2023-02-05T15:22:37.049Z,95.10
2023-02-05T15:25:11.464Z,95.10
2023-02-05T15:27:44.908Z,94.90
2023-02-05T15:30:16.670Z,94.70
2023-02-05T15:32:48.548Z,94.60
2023-02-05T15:35:18.385Z,94.90
2023-02-05T15:37:50.820Z,95.10
2023-02-05T15:40:19.117Z,95.30
2023-02-05T15:42:49.451Z,95.10
2023-02-05T15:45:27.126Z,94.90
2023-02-05T15:48:06.518Z,94.80
2023-02-05T15:50:35.877Z,95.10
2023-02-05T15:53:05.494Z,95.30
2023-02-05T15:55:34.078Z,94.80
2023-02-05T15:58:06.351Z,94.80
2023-02-05T16:00:35.090Z,95.20
2023-02-05T16:03:04.591Z,95.40
2023-02-05T16:05:32.276Z,95.50
2023-02-05T16:08:02.155Z,94.90
2023-02-05T16:10:30.970Z,95.00
2023-02-05T16:13:13.642Z,95.20
2023-02-05T16:15:43.532Z,95.90
2023-02-05T16:18:25.761Z,95.40
2023-02-05T16:20:56.796Z,95.60
2023-02-05T16:23:28.071Z,95.40
2023-02-05T16:25:59.401Z,95.40
2023-02-05T16:28:38.053Z,95.30
2023-02-05T16:31:07.167Z,95.00
2023-02-05T16:33:34.941Z,95.00
2023-02-05T16:36:04.001Z,95.20
2023-02-05T16:38:31.966Z,95.00
2023-02-05T16:41:00.354Z,95.40
2023-02-05T16:43:28.359Z,95.30
2023-02-05T16:46:18.065Z,95.00
2023-02-05T16:48:51.230Z,95.10
2023-02-05T16:51:38.529Z,95.50
2023-02-05T16:54:12.146Z,95.60
2023-02-05T16:56:50.102Z,95.60
2023-02-05T16:59:25.307Z,95.60
2023-02-05T17:01:53.537Z,95.60
2023-02-05T17:04:26.991Z,95.80
2023-02-05T17:06:57.398Z,95.70
2023-02-05T17:09:35.878Z,95.50
2023-02-05T17:12:22.674Z,95.50
2023-02-05T17:14:58.046Z,95.70
2023-02-05T17:17:26.544Z,95.80
2023-02-05T17:20:13.026Z,95.90
2023-02-05T17:22:41.273Z,95.80
2023-02-05T17:25:09.032Z,95.90
2023-02-05T17:27:39.988Z,95.50
2023-02-05T17:30:14.446Z,95.80
2023-02-05T17:32:43.909Z,95.80
2023-02-05T17:35:15.929Z,95.80
2023-02-05T17:37:44.237Z,95.80
2023-02-05T17:40:15.145Z,95.70
2023-02-05T17:42:44.242Z,95.50
2023-02-05T17:45:23.865Z,95.70
2023-02-05T17:47:51.758Z,95.70
2023-02-05T17:50:19.675Z,95.50
2023-02-05T17:52:47.311Z,95.50
2023-02-05T17:55:17.164Z,95.60
2023-02-05T17:57:45.226Z,96.10
2023-02-05T18:00:14.906Z,96.10
2023-02-05T18:02:42.413Z,96.20
2023-02-05T18:05:12.947Z,96.30
2023-02-05T18:07:46.050Z,96.20
2023-02-05T18:10:18.685Z,96.00
2023-02-05T18:12:46.185Z,96.20
2023-02-05T18:15:13.750Z,96.30
2023-02-05T18:17:41.568Z,95.90
2023-02-05T18:20:09.646Z,95.80
2023-02-05T18:22:37.389Z,95.80
2023-02-05T18:25:06.546Z,96.00
2023-02-05T18:27:34.247Z,96.00
2023-02-05T18:30:02.097Z,95.90
2023-02-05T18:32:31.768Z,95.80
2023-02-05T18:35:00.054Z,96.00
2023-02-05T18:37:27.534Z,96.10
2023-02-05T18:39:55.092Z,96.20
2023-02-05T18:42:24.222Z,96.70
2023-02-05T18:44:51.690Z,96.80
2023-02-05T18:47:19.152Z,96.80
2023-02-05T18:49:48.037Z,97.10
2023-02-05T18:52:16.466Z,97.00
2023-02-05T18:54:44.961Z,96.40
2023-02-05T18:57:15.820Z,96.30
2023-02-05T18:59:45.069Z,96.40
2023-02-05T19:02:13.573Z,96.30
2023-02-05T19:04:41.620Z,96.30
2023-02-05T19:07:09.240Z,96.10
2023-02-05T19:09:36.832Z,96.40
2023-02-05T19:12:04.488Z,96.40
2023-02-05T19:14:32.341Z,96.30
2023-02-05T19:17:00.681Z,96.20
2023-02-05T19:19:28.326Z,96.40
2023-02-05T19:22:00.244Z,96.60
2023-02-05T19:24:29.080Z,96.80
2023-02-05T19:26:59.942Z,97.10
2023-02-05T19:29:28.596Z,96.80
2023-02-05T19:31:57.625Z,96.40
2023-02-05T19:34:28.635Z,96.40
2023-02-05T19:36:56.289Z,96.40
2023-02-05T19:39:23.806Z,96.40
2023-02-05T19:41:52.135Z,96.70
2023-02-05T19:44:19.936Z,96.60
2023-02-05T19:46:48.991Z,96.50
2023-02-05T19:49:18.287Z,96.50
2023-02-05T19:51:47.620Z,96.50
2023-02-05T19:54:15.890Z,96.70
2023-02-05T19:56:44.621Z,97.00
2023-02-05T19:59:12.921Z,96.90
2023-02-05T20:01:44.761Z,96.80
2023-02-05T20:04:12.386Z,97.00
2023-02-05T20:06:40.786Z,96.70
2023-02-05T20:09:11.775Z,96.70
2023-02-05T20:11:41.224Z,97.00
2023-02-05T20:14:09.863Z,96.80
2023-02-05T20:16:40.447Z,96.90
2023-02-05T20:19:10.230Z,96.90
2023-02-05T20:21:39.523Z,96.90
2023-02-05T20:24:08.966Z,97.10
2023-02-05T20:26:37.540Z,96.80
2023-02-05T20:29:24.826Z,96.80
2023-02-05T20:31:53.985Z,97.10
2023-02-05T20:34:36.247Z,96.90
2023-02-05T20:37:06.579Z,96.90
2023-02-05T20:39:38.803Z,97.10
2023-02-05T20:42:06.342Z,97.00
2023-02-05T20:44:35.004Z,97.00
2023-02-05T20:47:03.915Z,97.50
2023-02-05T20:49:32.265Z,97.80
2023-02-05T20:52:00.062Z,98.00
2023-02-05T20:54:27.594Z,98.00
2023-02-05T20:56:59.536Z,97.80
2023-02-05T20:59:27.745Z,97.60
2023-02-05T21:01:55.869Z,97.60
2023-02-05T21:04:23.473Z,97.30
2023-02-05T21:06:51.083Z,97.60
2023-02-05T21:09:18.844Z,97.40
2023-02-05T21:11:46.487Z,97.70
2023-02-05T21:14:14.045Z,97.50
2023-02-05T21:16:42.470Z,97.30
2023-02-05T21:19:10.847Z,97.40
2023-02-05T21:21:39.370Z,97.60
2023-02-05T21:24:09.123Z,97.40
2023-02-05T21:26:38.068Z,97.30
2023-02-05T21:29:07.459Z,97.60
2023-02-05T21:31:38.794Z,97.80
2023-02-05T21:34:08.941Z,97.90
2023-02-05T21:36:37.464Z,98.10
2023-02-05T21:39:05.092Z,97.60
2023-02-05T21:41:32.736Z,97.50
2023-02-05T21:44:00.724Z,97.60
2023-02-05T21:46:29.775Z,97.70
2023-02-05T21:48:58.366Z,97.70
2023-02-05T21:51:27.675Z,97.70
2023-02-05T21:53:57.476Z,97.50
2023-02-05T21:56:26.218Z,97.70
2023-02-05T21:58:54.512Z,97.70
2023-02-05T22:01:23.555Z,97.80
2023-02-05T22:03:53.090Z,98.00
2023-02-05T22:06:21.473Z,98.20
2023-02-05T22:08:51.875Z,97.90
2023-02-05T22:11:20.981Z,97.90
2023-02-05T22:13:50.597Z,97.90
2023-02-05T22:16:21.251Z,97.90
2023-02-05T22:18:49.852Z,97.80
2023-02-05T22:21:18.808Z,97.80
2023-02-05T22:23:51.306Z,97.70
2023-02-05T22:26:20.903Z,97.80
2023-02-05T22:28:48.783Z,98.00
2023-02-05T22:31:19.246Z,98.10
2023-02-05T22:33:47.755Z,98.20
2023-02-05T22:36:15.992Z,98.50
2023-02-05T22:38:43.689Z,98.30
2023-02-05T22:41:12.324Z,98.20
2023-02-05T22:43:40.317Z,98.20
2023-02-05T22:46:13.724Z,98.20
2023-02-05T22:48:42.406Z,98.40
2023-02-05T22:51:11.419Z,98.80
2023-02-05T22:53:39.310Z,98.20
2023-02-05T22:56:08.282Z,98.00
2023-02-05T22:58:38.652Z,98.20
2023-02-05T23:01:14.494Z,98.30
2023-02-05T23:03:42.114Z,98.10
2023-02-05T23:06:17.247Z,98.00
2023-02-05T23:08:45.640Z,98.00
2023-02-05T23:11:15.504Z,98.10
2023-02-05T23:13:43.207Z,98.10
2023-02-05T23:16:13.413Z,98.00
2023-02-05T23:18:42.016Z,98.20
2023-02-05T23:21:10.517Z,98.30
2023-02-05T23:23:38.710Z,98.20
2023-02-05T23:26:08.431Z,98.10
2023-02-05T23:28:37.005Z,98.20
2023-02-05T23:31:05.821Z,98.10
2023-02-05T23:33:33.765Z,98.50
2023-02-05T23:36:01.643Z,98.20
2023-02-05T23:38:29.327Z,98.10
2023-02-05T23:40:57.398Z,98.20
2023-02-05T23:43:26.237Z,98.30
2023-02-05T23:45:54.746Z,98.20
2023-02-05T23:48:22.369Z,98.20
2023-02-05T23:50:50.810Z,98.30
2023-02-05T23:53:21.193Z,98.30
2023-02-05T23:55:49.946Z,98.30
2023-02-05T23:58:18.300Z,98.30
